createdAt,value
2023-02-27T00:00:36.590Z,97996.59
2023-02-27T00:01:39.632Z,97992.19
2023-02-27T00:02:48.422Z,97995.19
2023-02-27T00:03:51.609Z,97990.31
2023-02-27T00:04:54.867Z,98000.59
2023-02-27T00:05:58.088Z,97997.41
2023-02-27T00:07:01.234Z,98001.41
2023-02-27T00:08:04.647Z,98002.25
2023-02-27T00:09:08.653Z,98008.59
2023-02-27T00:10:14.068Z,98008.59
2023-02-27T00:11:17.019Z,98000.50
2023-02-27T00:12:20.344Z,98003.00
2023-02-27T00:13:23.440Z,98005.47
2023-02-27T00:14:26.713Z,98009.63
2023-02-27T00:15:32.356Z,98009.84
2023-02-27T00:16:35.383Z,98006.72
2023-02-27T00:17:38.855Z,98002.34
2023-02-27T00:18:41.963Z,98003.47
2023-02-27T00:19:45.082Z,98008.47
2023-02-27T00:20:48.855Z,98005.97
2023-02-27T00:21:51.829Z,98011.19
2023-02-27T00:22:55.087Z,98007.97
2023-02-27T00:23:58.460Z,98004.00
2023-02-27T00:25:01.526Z,98006.50
2023-02-27T00:26:04.715Z,98007.66
2023-02-27T00:27:07.882Z,98011.19
2023-02-27T00:28:10.969Z,98019.78
2023-02-27T00:29:13.935Z,98015.62
2023-02-27T00:30:17.206Z,98011.91
2023-02-27T00:31:20.206Z,98019.37
2023-02-27T00:32:23.505Z,98013.53
2023-02-27T00:33:26.644Z,98014.06
2023-02-27T00:34:29.722Z,98019.75
2023-02-27T00:35:32.733Z,98015.72
2023-02-27T00:36:35.685Z,98016.31
2023-02-27T00:37:39.719Z,98022.00
2023-02-27T00:38:44.771Z,98018.38
2023-02-27T00:39:47.712Z,98022.00
2023-02-27T00:40:50.737Z,98016.31
2023-02-27T00:41:53.648Z,98021.19
2023-02-27T00:42:56.669Z,98022.97
2023-02-27T00:43:59.648Z,98022.25
2023-02-27T00:45:04.193Z,98018.81
2023-02-27T00:46:07.264Z,98028.84
2023-02-27T00:47:10.558Z,98033.84
2023-02-27T00:48:13.957Z,98028.94
2023-02-27T00:49:17.160Z,98024.28
2023-02-27T00:50:20.379Z,98029.47
2023-02-27T00:51:23.421Z,98029.47
2023-02-27T00:52:27.074Z,98031.44
2023-02-27T00:53:30.109Z,98024.88
2023-02-27T00:54:33.144Z,98028.59
2023-02-27T00:55:36.144Z,98023.78
2023-02-27T00:56:39.250Z,98028.38
2023-02-27T00:57:42.489Z,98031.06
2023-02-27T00:58:45.988Z,98032.84
2023-02-27T00:59:48.957Z,98037.00
2023-02-27T01:00:52.536Z,98036.47
2023-02-27T01:01:55.968Z,98036.06
2023-02-27T01:02:59.196Z,98038.75
2023-02-27T01:04:02.674Z,98034.06
2023-02-27T01:05:06.077Z,98036.06
2023-02-27T01:06:09.303Z,98036.06
2023-02-27T01:07:12.252Z,98036.06
2023-02-27T01:08:16.635Z,98032.19
2023-02-27T01:09:19.698Z,98032.66
2023-02-27T01:10:22.618Z,98039.09
2023-02-27T01:11:25.889Z,98045.16
2023-02-27T01:12:29.035Z,98040.78
2023-02-27T01:13:32.048Z,98043.91
2023-02-27T01:14:35.165Z,98041.72
2023-02-27T01:15:38.612Z,98042.31
2023-02-27T01:16:41.664Z,98045.09
2023-02-27T01:17:44.872Z,98043.78
2023-02-27T01:18:47.994Z,98047.00
2023-02-27T01:19:51.025Z,98044.28
2023-02-27T01:20:55.354Z,98033.72
2023-02-27T01:21:58.342Z,98035.69
2023-02-27T01:23:01.272Z,98045.75
2023-02-27T01:24:04.385Z,98037.88
2023-02-27T01:25:08.296Z,98045.97
2023-02-27T01:26:11.281Z,98047.28
2023-02-27T01:27:14.209Z,98044.06
2023-02-27T01:28:17.673Z,98048.22
2023-02-27T01:29:21.145Z,98050.34
2023-02-27T01:30:24.147Z,98054.19
2023-02-27T01:31:27.566Z,98054.28
2023-02-27T01:32:30.860Z,98045.97
2023-02-27T01:33:34.200Z,98059.00
2023-02-27T01:34:37.267Z,98044.22
2023-02-27T01:35:40.377Z,98054.44
2023-02-27T01:36:43.542Z,98047.06
2023-02-27T01:37:46.468Z,98052.97
2023-02-27T01:38:49.457Z,98049.75
2023-02-27T01:39:52.490Z,98046.09
2023-02-27T01:40:56.475Z,98052.97
2023-02-27T01:42:00.091Z,98038.22
2023-02-27T01:43:03.443Z,98042.37
2023-02-27T01:44:09.471Z,98052.97
2023-02-27T01:45:12.589Z,98037.28
2023-02-27T01:46:15.538Z,98042.47
2023-02-27T01:47:18.745Z,98040.94
2023-02-27T01:48:40.040Z,98041.87
2023-02-27T01:49:43.358Z,98051.22
2023-02-27T01:51:04.478Z,98048.31
2023-02-27T01:52:11.393Z,98050.69
2023-02-27T01:53:15.048Z,98050.50
2023-02-27T01:54:22.438Z,98052.53
2023-02-27T01:55:27.668Z,98047.88
2023-02-27T01:56:32.365Z,98052.47
2023-02-27T01:57:38.445Z,98038.22
2023-02-27T01:58:43.615Z,98046.09
2023-02-27T01:59:46.677Z,98052.47
2023-02-27T02:00:50.068Z,98046.16
2023-02-27T02:01:53.689Z,98059.59
2023-02-27T02:03:12.083Z,98055.16
2023-02-27T02:04:39.885Z,98054.00
2023-02-27T02:05:45.074Z,98059.56
2023-02-27T02:06:54.466Z,98052.19
2023-02-27T02:07:58.724Z,98060.69
2023-02-27T02:09:03.102Z,98049.16
2023-02-27T02:10:08.111Z,98070.28
2023-02-27T02:11:12.747Z,98064.44
2023-02-27T02:12:19.051Z,98071.09
2023-02-27T02:13:22.795Z,98066.69
2023-02-27T02:14:25.780Z,98068.88
2023-02-27T02:15:37.789Z,98065.00
2023-02-27T02:17:00.897Z,98066.47
2023-02-27T02:18:22.750Z,98076.78
2023-02-27T02:19:40.742Z,98075.44
2023-02-27T02:21:12.987Z,98079.41
2023-02-27T02:22:53.226Z,98079.91
2023-02-27T02:24:33.746Z,98090.72
2023-02-27T02:26:01.431Z,98091.66
2023-02-27T02:27:30.826Z,98089.69
2023-02-27T02:29:14.752Z,98095.09
2023-02-27T02:31:06.055Z,98093.41
2023-02-27T02:32:21.965Z,98099.47
2023-02-27T02:33:55.792Z,98100.50
2023-02-27T02:35:23.029Z,98102.19
2023-02-27T02:36:53.981Z,98106.41
2023-02-27T02:38:06.237Z,98097.28
2023-02-27T02:39:22.596Z,98097.50
2023-02-27T02:40:36.108Z,98100.22
2023-02-27T02:41:54.094Z,98098.50
2023-02-27T02:43:06.712Z,98099.31
2023-02-27T02:44:24.686Z,98105.97
2023-02-27T02:45:40.374Z,98102.47
2023-02-27T02:46:47.733Z,98101.72
2023-02-27T02:48:02.275Z,98110.87
2023-02-27T02:49:20.203Z,98105.75
2023-02-27T02:50:40.153Z,98110.28
2023-02-27T02:52:11.024Z,98115.69
2023-02-27T02:53:37.186Z,98107.84
2023-02-27T02:54:55.144Z,98114.50
2023-02-27T02:56:05.674Z,98109.56
2023-02-27T02:57:24.399Z,98116.19
2023-02-27T02:58:29.910Z,98116.41
2023-02-27T02:59:56.298Z,98119.84
2023-02-27T03:01:10.438Z,98117.22
2023-02-27T03:02:18.980Z,98115.97
2023-02-27T03:03:28.430Z,98118.59
2023-02-27T03:04:42.583Z,98121.38
2023-02-27T03:05:56.860Z,98127.75
2023-02-27T03:07:21.867Z,98123.47
2023-02-27T03:08:31.466Z,98128.75
2023-02-27T03:09:49.534Z,98124.59
2023-02-27T03:11:06.506Z,98121.44
2023-02-27T03:12:13.446Z,98125.81
2023-02-27T03:13:49.195Z,98124.13
2023-02-27T03:15:17.538Z,98123.47
2023-02-27T03:16:20.467Z,98135.03
2023-02-27T03:17:48.849Z,98132.41
2023-02-27T03:19:06.588Z,98131.44
2023-02-27T03:20:15.571Z,98136.06
2023-02-27T03:21:30.361Z,98144.50
2023-02-27T03:22:38.816Z,98143.84
2023-02-27T03:23:48.008Z,98142.53
2023-02-27T03:24:57.938Z,98144.50
2023-02-27T03:26:01.352Z,98151.41
2023-02-27T03:27:08.476Z,98141.44
2023-02-27T03:28:19.605Z,98144.09
2023-02-27T03:29:30.552Z,98140.38
2023-02-27T03:30:36.105Z,98151.81
2023-02-27T03:31:42.339Z,98149.16
2023-02-27T03:33:11.510Z,98151.88
2023-02-27T03:34:19.616Z,98154.28
2023-02-27T03:35:26.746Z,98156.13
2023-02-27T03:36:59.111Z,98149.22
2023-02-27T03:38:18.823Z,98146.94
2023-02-27T03:39:44.743Z,98157.53
2023-02-27T03:41:09.498Z,98155.91
2023-02-27T03:42:34.256Z,98151.59
2023-02-27T03:43:54.337Z,98160.69
2023-02-27T03:45:25.096Z,98161.03
2023-02-27T03:46:28.827Z,98168.12
2023-02-27T03:47:34.713Z,98158.53
2023-02-27T03:48:38.749Z,98168.34
2023-02-27T03:49:41.790Z,98165.25
2023-02-27T03:50:45.323Z,98164.75
2023-02-27T03:51:48.467Z,98159.34
2023-02-27T03:52:51.598Z,98167.88
2023-02-27T03:54:10.045Z,98156.19
2023-02-27T03:55:18.714Z,98171.63
2023-02-27T03:56:27.664Z,98168.00
2023-02-27T03:57:32.365Z,98165.31
2023-02-27T03:58:36.626Z,98170.50
2023-02-27T03:59:39.939Z,98167.28
2023-02-27T04:00:43.746Z,98170.94
2023-02-27T04:01:46.921Z,98173.66
2023-02-27T04:02:53.058Z,98173.88
2023-02-27T04:04:06.059Z,98165.31
2023-02-27T04:05:09.362Z,98170.81
2023-02-27T04:06:30.761Z,98174.19
2023-02-27T04:07:54.512Z,98172.22
2023-02-27T04:09:22.777Z,98173.72
2023-02-27T04:10:31.750Z,98177.03
2023-02-27T04:11:40.779Z,98181.25
2023-02-27T04:13:17.619Z,98179.00
2023-02-27T04:14:31.142Z,98171.63
2023-02-27T04:16:06.426Z,98173.66
2023-02-27T04:17:28.959Z,98174.75
2023-02-27T04:19:04.902Z,98177.44
2023-02-27T04:20:08.258Z,98174.75
2023-02-27T04:21:29.840Z,98185.53
2023-02-27T04:22:47.587Z,98180.00
2023-02-27T04:23:57.598Z,98180.84
2023-02-27T04:25:06.756Z,98177.50
2023-02-27T04:26:28.259Z,98171.63
2023-02-27T04:27:46.778Z,98178.69
2023-02-27T04:29:05.984Z,98178.19
2023-02-27T04:30:38.558Z,98180.72
2023-02-27T04:32:14.077Z,98177.56
2023-02-27T04:33:53.026Z,98176.97
2023-02-27T04:35:06.496Z,98189.13
2023-02-27T04:36:17.451Z,98190.59
2023-02-27T04:37:31.209Z,98190.81
2023-02-27T04:38:42.799Z,98191.78
2023-02-27T04:40:05.726Z,98192.97
2023-02-27T04:41:15.336Z,98187.59
2023-02-27T04:42:29.481Z,98191.53
2023-02-27T04:43:35.866Z,98200.16
2023-02-27T04:44:40.380Z,98189.78
2023-02-27T04:45:47.211Z,98185.69
2023-02-27T04:46:54.622Z,98190.12
2023-02-27T04:48:03.663Z,98205.81
2023-02-27T04:49:15.992Z,98191.38
2023-02-27T04:50:30.151Z,98205.16
2023-02-27T04:51:39.825Z,98193.34
2023-02-27T04:52:50.551Z,98195.81
2023-02-27T04:54:14.191Z,98203.25
2023-02-27T04:55:36.272Z,98204.88
2023-02-27T04:56:42.666Z,98202.69
2023-02-27T04:57:53.865Z,98199.75
2023-02-27T04:59:08.822Z,98202.13
2023-02-27T05:00:14.673Z,98194.59
2023-02-27T05:01:25.466Z,98204.81
2023-02-27T05:02:38.428Z,98204.38
2023-02-27T05:03:47.833Z,98203.56
2023-02-27T05:04:54.384Z,98201.87
2023-02-27T05:06:00.785Z,98211.22
2023-02-27T05:07:06.342Z,98204.16
2023-02-27T05:08:17.035Z,98199.75
2023-02-27T05:09:37.180Z,98201.94
2023-02-27T05:10:49.652Z,98215.91
2023-02-27T05:12:24.061Z,98210.81
2023-02-27T05:13:33.947Z,98206.12
2023-02-27T05:14:46.750Z,98212.69
2023-02-27T05:15:56.658Z,98212.69
2023-02-27T05:17:37.930Z,98217.19
2023-02-27T05:18:41.331Z,98224.84
2023-02-27T05:19:45.573Z,98226.53
2023-02-27T05:21:09.452Z,98222.16
2023-02-27T05:22:36.675Z,98231.94
2023-02-27T05:23:44.171Z,98235.31
2023-02-27T05:25:16.138Z,98227.44
2023-02-27T05:26:37.900Z,98231.28
2023-02-27T05:27:53.263Z,98233.72
2023-02-27T05:29:10.009Z,98230.97
2023-02-27T05:30:49.743Z,98232.28
2023-02-27T05:32:24.792Z,98234.88
2023-02-27T05:33:33.266Z,98233.13
2023-02-27T05:34:48.019Z,98240.50
2023-02-27T05:36:11.004Z,98241.50
2023-02-27T05:37:35.837Z,98246.41
2023-02-27T05:39:01.256Z,98245.41
2023-02-27T05:40:08.664Z,98250.56
2023-02-27T05:41:26.339Z,98247.84
2023-02-27T05:42:36.146Z,98245.91
2023-02-27T05:43:47.566Z,98257.19
2023-02-27T05:44:56.028Z,98254.28
2023-02-27T05:46:05.567Z,98259.69
2023-02-27T05:47:17.728Z,98257.44
2023-02-27T05:48:29.201Z,98247.31
2023-02-27T05:49:48.761Z,98270.44
2023-02-27T05:50:53.953Z,98265.03
2023-02-27T05:51:59.736Z,98276.34
2023-02-27T05:53:10.032Z,98262.13
2023-02-27T05:54:41.845Z,98261.34
2023-02-27T05:55:49.496Z,98260.63
2023-02-27T05:56:55.031Z,98254.44
2023-02-27T05:58:09.017Z,98267.00
2023-02-27T05:59:22.823Z,98263.06
2023-02-27T06:00:35.835Z,98274.38
2023-02-27T06:01:39.608Z,98279.78
2023-02-27T06:02:45.345Z,98286.44
2023-02-27T06:03:48.426Z,98285.66
2023-02-27T06:04:51.553Z,98279.06
2023-02-27T06:05:57.727Z,98274.12
2023-02-27T06:07:01.106Z,98288.66
2023-02-27T06:08:04.365Z,98287.22
2023-02-27T06:09:08.099Z,98279.78
2023-02-27T06:10:20.149Z,98279.31
2023-02-27T06:11:23.140Z,98284.00
2023-02-27T06:12:25.953Z,98289.19
2023-02-27T06:13:29.184Z,98292.56
2023-02-27T06:14:32.063Z,98294.97
2023-02-27T06:15:34.992Z,98300.09
2023-02-27T06:16:39.381Z,98294.69
2023-02-27T06:17:42.376Z,98294.28
2023-02-27T06:18:45.651Z,98301.13
2023-02-27T06:19:48.804Z,98300.47
2023-02-27T06:20:52.123Z,98300.94
2023-02-27T06:21:55.218Z,98305.59
2023-02-27T06:22:58.173Z,98304.31
2023-02-27T06:24:01.178Z,98310.44
2023-02-27T06:25:04.612Z,98314.84
2023-02-27T06:26:07.624Z,98310.69
2023-02-27T06:27:10.670Z,98315.16
2023-02-27T06:28:13.694Z,98321.91
2023-02-27T06:29:17.767Z,98323.44
2023-02-27T06:30:21.107Z,98322.25
2023-02-27T06:31:24.047Z,98321.03
2023-02-27T06:32:27.255Z,98326.31
2023-02-27T06:33:30.240Z,98330.44
2023-02-27T06:34:33.218Z,98335.16
2023-02-27T06:35:36.459Z,98337.19
2023-02-27T06:36:40.028Z,98343.53
2023-02-27T06:37:43.226Z,98338.06
2023-02-27T06:38:46.280Z,98342.22
2023-02-27T06:39:49.317Z,98343.66
2023-02-27T06:40:52.553Z,98346.91
2023-02-27T06:41:55.431Z,98337.84
2023-02-27T06:42:58.428Z,98347.63
2023-02-27T06:44:01.352Z,98345.19
2023-02-27T06:45:04.715Z,98349.56
2023-02-27T06:46:07.825Z,98354.97
2023-02-27T06:47:11.101Z,98349.56
2023-02-27T06:48:15.176Z,98359.59
2023-02-27T06:49:19.174Z,98357.81
2023-02-27T06:50:22.656Z,98367.38
2023-02-27T06:51:25.694Z,98362.69
2023-02-27T06:52:28.896Z,98360.22
2023-02-27T06:53:31.817Z,98360.44
2023-02-27T06:54:34.908Z,98366.28
2023-02-27T06:55:38.618Z,98363.09
2023-02-27T06:56:41.706Z,98366.22
2023-02-27T06:57:44.686Z,98364.03
2023-02-27T06:58:47.755Z,98370.97
2023-02-27T06:59:50.909Z,98360.59
2023-02-27T07:00:54.021Z,98367.94
2023-02-27T07:01:59.185Z,98361.53
2023-02-27T07:03:05.094Z,98366.94
2023-02-27T07:04:13.566Z,98371.59
2023-02-27T07:05:16.813Z,98373.00
2023-02-27T07:06:20.122Z,98374.19
2023-02-27T07:07:35.711Z,98381.78
2023-02-27T07:09:01.491Z,98372.16
2023-02-27T07:10:05.963Z,98372.59
2023-02-27T07:11:09.687Z,98371.84
2023-02-27T07:12:12.958Z,98381.16
2023-02-27T07:13:19.510Z,98377.72
2023-02-27T07:14:22.894Z,98376.25
2023-02-27T07:15:25.922Z,98376.03
2023-02-27T07:16:29.178Z,98379.97
2023-02-27T07:17:32.413Z,98377.00
2023-02-27T07:18:35.856Z,98380.44
2023-02-27T07:19:39.431Z,98374.22
2023-02-27T07:20:43.066Z,98384.31
2023-02-27T07:21:46.337Z,98385.56
2023-02-27T07:22:49.512Z,98385.09
2023-02-27T07:23:52.946Z,98385.63
2023-02-27T07:24:56.093Z,98393.94
2023-02-27T07:25:59.072Z,98396.38
2023-02-27T07:27:02.012Z,98392.50
2023-02-27T07:28:05.446Z,98383.78
2023-02-27T07:29:11.553Z,98378.37
2023-02-27T07:30:14.764Z,98388.69
2023-02-27T07:31:18.112Z,98388.62
2023-02-27T07:32:21.602Z,98391.56
2023-02-27T07:33:24.829Z,98385.44
2023-02-27T07:34:27.963Z,98396.53
2023-02-27T07:35:31.227Z,98384.25
2023-02-27T07:36:34.550Z,98396.75
2023-02-27T07:37:38.188Z,98391.84
2023-02-27T07:38:41.151Z,98400.63
2023-02-27T07:39:45.272Z,98400.63
2023-02-27T07:40:48.664Z,98403.72
2023-02-27T07:41:51.822Z,98397.31
2023-02-27T07:42:55.199Z,98403.44
2023-02-27T07:43:58.786Z,98406.81
2023-02-27T07:45:01.953Z,98405.34
2023-02-27T07:46:05.213Z,98413.41
2023-02-27T07:47:08.481Z,98406.75
2023-02-27T07:48:11.609Z,98409.88
2023-02-27T07:49:14.868Z,98410.25
2023-02-27T07:50:17.902Z,98415.13
2023-02-27T07:51:21.253Z,98402.94
2023-02-27T07:52:24.887Z,98408.78
2023-02-27T07:53:28.225Z,98411.94
2023-02-27T07:54:31.835Z,98407.72
2023-02-27T07:55:37.144Z,98414.50
2023-02-27T07:56:40.194Z,98420.84
2023-02-27T07:57:45.305Z,98412.22
2023-02-27T07:58:48.294Z,98408.69
2023-02-27T07:59:51.690Z,98418.22
2023-02-27T08:00:55.222Z,98410.31
2023-02-27T08:01:58.296Z,98414.34
2023-02-27T08:03:01.443Z,98410.41
2023-02-27T08:04:04.657Z,98410.91
2023-02-27T08:05:08.366Z,98403.06
2023-02-27T08:06:11.565Z,98410.75
2023-02-27T08:07:14.717Z,98397.28
2023-02-27T08:08:17.987Z,98417.78
2023-02-27T08:09:21.291Z,98410.84
2023-02-27T08:10:24.717Z,98413.53
2023-02-27T08:11:28.208Z,98410.84
2023-02-27T08:12:31.439Z,98417.88
2023-02-27T08:14:57.516Z,98417.88
2023-02-27T08:16:00.810Z,98432.34
2023-02-27T08:17:03.702Z,98435.06
2023-02-27T08:18:06.836Z,98430.06
2023-02-27T08:19:10.031Z,98432.56
2023-02-27T08:20:14.521Z,98428.34
2023-02-27T08:21:17.672Z,98442.38
2023-02-27T08:22:21.080Z,98438.13
2023-02-27T08:23:24.128Z,98437.13
2023-02-27T08:24:27.651Z,98439.81
2023-02-27T08:25:30.666Z,98439.94
2023-02-27T08:26:34.034Z,98455.19
2023-02-27T08:27:37.904Z,98442.38
2023-02-27T08:28:41.473Z,98442.12
2023-02-27T08:29:45.879Z,98446.63
2023-02-27T08:30:52.135Z,98445.38
2023-02-27T08:31:55.298Z,98451.22
2023-02-27T08:32:58.478Z,98458.41
2023-02-27T08:34:09.929Z,98455.56
2023-02-27T08:35:13.914Z,98457.28
2023-02-27T08:36:17.264Z,98459.00
2023-02-27T08:37:20.679Z,98456.34
2023-02-27T08:38:26.051Z,98462.72
2023-02-27T08:39:29.583Z,98468.13
2023-02-27T08:40:32.920Z,98465.00
2023-02-27T08:41:36.167Z,98465.28
2023-02-27T08:42:39.513Z,98468.00
2023-02-27T08:43:42.527Z,98474.44
2023-02-27T08:44:45.610Z,98475.19
2023-02-27T08:45:49.907Z,98473.94
2023-02-27T08:46:53.000Z,98471.22
2023-02-27T08:47:55.999Z,98469.69
2023-02-27T08:48:59.266Z,98482.72
2023-02-27T08:50:02.315Z,98482.63
2023-02-27T08:51:05.393Z,98481.31
2023-02-27T08:52:10.113Z,98487.84
2023-02-27T08:53:13.368Z,98484.06
2023-02-27T08:54:16.332Z,98477.94
2023-02-27T08:55:19.328Z,98478.81
2023-02-27T08:56:22.253Z,98478.16
2023-02-27T08:57:25.792Z,98478.81
2023-02-27T08:58:29.007Z,98479.66
2023-02-27T08:59:32.663Z,98474.81
2023-02-27T09:00:35.797Z,98483.19
2023-02-27T09:01:38.875Z,98481.19
2023-02-27T09:02:42.929Z,98483.19
2023-02-27T09:03:46.157Z,98476.16
2023-02-27T09:04:49.061Z,98482.53
2023-02-27T09:05:52.005Z,98479.09
2023-02-27T09:06:55.114Z,98474.25
2023-02-27T09:07:58.059Z,98473.53
2023-02-27T09:09:01.560Z,98484.81
2023-02-27T09:10:04.749Z,98483.47
2023-02-27T09:11:07.959Z,98482.44
2023-02-27T09:12:11.188Z,98488.28
2023-02-27T09:13:14.758Z,98486.44
2023-02-27T09:14:18.113Z,98498.31
2023-02-27T09:15:21.077Z,98496.03
2023-02-27T09:16:24.398Z,98500.72
2023-02-27T09:17:27.616Z,98500.94
2023-02-27T09:18:30.882Z,98506.16
2023-02-27T09:19:34.192Z,98490.78
2023-02-27T09:20:37.330Z,98499.22
2023-02-27T09:21:40.876Z,98496.94
2023-02-27T09:22:44.433Z,98502.59
2023-02-27T09:23:47.409Z,98495.19
2023-02-27T09:24:50.646Z,98500.28
2023-02-27T09:25:53.528Z,98501.91
2023-02-27T09:26:56.454Z,98498.53
2023-02-27T09:27:59.784Z,98506.03
2023-02-27T09:29:02.862Z,98507.06
2023-02-27T09:30:06.462Z,98505.47
2023-02-27T09:31:11.244Z,98506.19
2023-02-27T09:32:14.346Z,98509.28
2023-02-27T09:33:17.583Z,98509.19
2023-02-27T09:34:20.771Z,98498.00
2023-02-27T09:35:23.754Z,98508.59
2023-02-27T09:36:27.148Z,98505.88
2023-02-27T09:37:30.272Z,98502.88
2023-02-27T09:38:35.980Z,98499.44
2023-02-27T09:39:39.188Z,98498.09
2023-02-27T09:40:50.344Z,98505.88
2023-02-27T09:42:11.900Z,98510.56
2023-02-27T09:43:19.739Z,98505.13
2023-02-27T09:44:46.252Z,98509.88
2023-02-27T09:45:56.374Z,98506.44
2023-02-27T09:46:59.569Z,98512.59
2023-02-27T09:48:07.279Z,98510.94
2023-02-27T09:49:16.407Z,98503.97
2023-02-27T09:50:38.151Z,98512.84
2023-02-27T09:51:41.318Z,98510.75
2023-02-27T09:52:45.438Z,98514.13
2023-02-27T09:53:51.958Z,98521.09
2023-02-27T09:54:55.673Z,98513.75
2023-02-27T09:56:15.745Z,98525.88
2023-02-27T09:57:42.123Z,98521.03
2023-02-27T09:59:03.819Z,98525.22
2023-02-27T10:00:35.515Z,98516.72
2023-02-27T10:01:48.447Z,98533.19
2023-02-27T10:03:09.714Z,98528.56
2023-02-27T10:04:21.841Z,98529.09
2023-02-27T10:05:46.541Z,98537.78
2023-02-27T10:07:13.306Z,98525.50
2023-02-27T10:08:37.418Z,98526.94
2023-02-27T10:10:09.960Z,98528.41
2023-02-27T10:11:16.876Z,98525.62
2023-02-27T10:12:35.029Z,98530.41
2023-02-27T10:14:03.376Z,98531.69
2023-02-27T10:15:15.995Z,98532.13
2023-02-27T10:16:22.081Z,98534.72
2023-02-27T10:17:28.532Z,98530.34
2023-02-27T10:18:36.248Z,98537.53
2023-02-27T10:19:40.549Z,98535.25
2023-02-27T10:20:51.660Z,98526.31
2023-02-27T10:21:56.939Z,98529.22
2023-02-27T10:23:05.890Z,98529.50
2023-02-27T10:24:30.152Z,98532.97
2023-02-27T10:25:39.871Z,98528.06
2023-02-27T10:26:45.862Z,98536.72
2023-02-27T10:27:51.384Z,98529.09
2023-02-27T10:28:54.475Z,98535.16
2023-02-27T10:30:29.195Z,98535.25
2023-02-27T10:31:36.242Z,98532.84
2023-02-27T10:32:40.585Z,98529.69
2023-02-27T10:33:45.277Z,98531.38
2023-02-27T10:35:09.328Z,98529.94
2023-02-27T10:36:27.032Z,98530.75
2023-02-27T10:37:40.324Z,98537.63
2023-02-27T10:38:55.721Z,98526.34
2023-02-27T10:40:05.110Z,98537.63
2023-02-27T10:41:13.152Z,98529.69
2023-02-27T10:42:17.684Z,98525.88
2023-02-27T10:43:21.585Z,98530.47
2023-02-27T10:44:24.747Z,98535.47
2023-02-27T10:45:27.442Z,98531.84
2023-02-27T10:46:33.040Z,98528.19
2023-02-27T10:47:39.035Z,98531.41
2023-02-27T10:48:42.138Z,98526.84
2023-02-27T10:49:45.071Z,98528.41
2023-02-27T10:50:52.722Z,98524.44
2023-02-27T10:52:16.416Z,98531.44
2023-02-27T10:53:25.942Z,98526.22
2023-02-27T10:54:28.629Z,98527.25
2023-02-27T10:55:34.403Z,98527.34
2023-02-27T10:56:37.368Z,98531.75
2023-02-27T10:57:43.693Z,98527.91
2023-02-27T10:58:46.556Z,98531.56
2023-02-27T10:59:56.853Z,98525.31
2023-02-27T11:01:02.775Z,98525.53
2023-02-27T11:02:21.113Z,98525.62
2023-02-27T11:03:30.532Z,98529.50
2023-02-27T11:04:39.942Z,98536.91
2023-02-27T11:05:42.872Z,98530.31
2023-02-27T11:06:54.000Z,98534.62
2023-02-27T11:08:10.626Z,98535.13
2023-02-27T11:09:26.110Z,98535.22
2023-02-27T11:10:29.469Z,98536.38
2023-02-27T11:11:32.313Z,98532.66
2023-02-27T11:12:35.401Z,98538.16
2023-02-27T11:13:43.920Z,98532.94
2023-02-27T11:15:11.724Z,98544.13
2023-02-27T11:16:21.967Z,98534.91
2023-02-27T11:17:30.504Z,98528.34
2023-02-27T11:18:35.487Z,98538.59
2023-02-27T11:19:40.265Z,98532.00
2023-02-27T11:20:43.881Z,98539.63
2023-02-27T11:22:04.766Z,98538.81
2023-02-27T11:23:25.230Z,98538.06
2023-02-27T11:24:29.247Z,98544.53
2023-02-27T11:25:33.779Z,98540.66
2023-02-27T11:26:40.475Z,98544.22
2023-02-27T11:27:43.289Z,98538.97
2023-02-27T11:28:46.186Z,98551.81
2023-02-27T11:30:04.047Z,98552.56
2023-02-27T11:31:22.496Z,98551.28
2023-02-27T11:32:32.532Z,98550.06
2023-02-27T11:33:58.995Z,98541.28
2023-02-27T11:35:01.972Z,98551.13
2023-02-27T11:36:05.422Z,98549.56
2023-02-27T11:37:24.806Z,98549.44
2023-02-27T11:38:30.321Z,98555.50
2023-02-27T11:40:00.127Z,98550.06
2023-02-27T11:41:05.866Z,98550.41
2023-02-27T11:42:14.999Z,98549.34
2023-02-27T11:43:49.956Z,98546.91
2023-02-27T11:46:13.895Z,98544.50
2023-02-27T11:46:47.925Z,98547.56
2023-02-27T11:47:58.276Z,98544.84
2023-02-27T11:49:08.326Z,98542.53
2023-02-27T11:50:48.905Z,98549.22
2023-02-27T11:52:09.120Z,98537.16
2023-02-27T11:53:49.221Z,98553.66
2023-02-27T11:54:58.177Z,98551.72
2023-02-27T11:56:05.914Z,98552.13
2023-02-27T11:57:27.219Z,98552.75
2023-02-27T11:58:42.818Z,98544.78
2023-02-27T12:00:01.955Z,98544.59
2023-02-27T12:01:13.035Z,98535.59
2023-02-27T12:02:48.522Z,98537.53
2023-02-27T12:04:04.912Z,98533.84
2023-02-27T12:05:21.274Z,98541.62
2023-02-27T12:06:38.357Z,98540.38
2023-02-27T12:07:54.973Z,98535.28
2023-02-27T12:09:19.449Z,98531.28
2023-02-27T12:10:24.434Z,98538.06
2023-02-27T12:11:41.548Z,98536.16
2023-02-27T12:12:47.777Z,98541.78
2023-02-27T12:13:59.232Z,98537.34
2023-02-27T12:15:10.021Z,98536.00
2023-02-27T12:16:54.336Z,98541.38
2023-02-27T12:18:15.987Z,98533.59
2023-02-27T12:19:25.596Z,98539.13
2023-02-27T12:20:36.299Z,98542.81
2023-02-27T12:21:44.033Z,98546.13
2023-02-27T12:22:52.066Z,98548.50
2023-02-27T12:24:02.734Z,98536.97
2023-02-27T12:25:22.596Z,98545.34
2023-02-27T12:26:28.515Z,98549.72
2023-02-27T12:27:59.493Z,98549.91
2023-02-27T12:29:25.844Z,98549.09
2023-02-27T12:30:36.625Z,98555.47
2023-02-27T12:31:47.378Z,98556.72
2023-02-27T12:33:00.550Z,98555.84
2023-02-27T12:34:29.604Z,98557.59
2023-02-27T12:35:33.456Z,98554.22
2023-02-27T12:36:36.571Z,98556.47
2023-02-27T12:37:39.763Z,98552.47
2023-02-27T12:38:43.379Z,98561.31
2023-02-27T12:39:46.578Z,98557.28
2023-02-27T12:41:10.739Z,98556.44
2023-02-27T12:42:16.201Z,98559.91
2023-02-27T12:43:54.378Z,98566.56
2023-02-27T12:45:13.811Z,98555.84
2023-02-27T12:46:26.932Z,98562.38
2023-02-27T12:47:52.599Z,98557.53
2023-02-27T12:49:11.697Z,98566.97
2023-02-27T12:50:21.851Z,98561.34
2023-02-27T12:51:44.363Z,98568.16
2023-02-27T12:53:15.176Z,98564.19
2023-02-27T12:54:24.076Z,98558.72
2023-02-27T12:55:32.008Z,98564.91
2023-02-27T12:57:16.290Z,98562.06
2023-02-27T12:58:34.466Z,98566.03
2023-02-27T12:59:40.259Z,98564.91
2023-02-27T13:00:53.817Z,98562.00
2023-02-27T13:02:32.855Z,98560.50
2023-02-27T13:03:54.633Z,98560.91
2023-02-27T13:05:09.498Z,98559.47
2023-02-27T13:06:42.124Z,98570.81
2023-02-27T13:08:03.266Z,98569.56
2023-02-27T13:09:25.934Z,98564.78
2023-02-27T13:10:51.913Z,98572.66
2023-02-27T13:12:07.712Z,98565.63
2023-02-27T13:13:24.691Z,98571.91
2023-02-27T13:14:50.697Z,98569.63
2023-02-27T13:16:07.088Z,98569.19
2023-02-27T13:17:21.410Z,98572.44
2023-02-27T13:18:52.741Z,98572.66
2023-02-27T13:20:34.756Z,98573.50
2023-02-27T13:21:46.721Z,98577.78
2023-02-27T13:23:14.006Z,98570.50
2023-02-27T13:24:31.452Z,98568.59
2023-02-27T13:25:38.976Z,98571.19
2023-02-27T13:26:47.306Z,98569.50
2023-02-27T13:27:50.307Z,98571.19
2023-02-27T13:28:54.512Z,98582.25
2023-02-27T13:30:03.589Z,98575.06
2023-02-27T13:31:30.317Z,98584.66
2023-02-27T13:32:49.005Z,98580.91
2023-02-27T13:34:05.177Z,98581.41
2023-02-27T13:35:20.147Z,98581.94
2023-02-27T13:36:32.230Z,98581.03
2023-02-27T13:37:58.416Z,98587.94
2023-02-27T13:39:01.474Z,98584.37
2023-02-27T13:40:32.090Z,98580.19
2023-02-27T13:41:38.893Z,98579.53
2023-02-27T13:42:47.774Z,98591.66